sensor_id;sensor_type;location;lat;lon;timestamp;temperature;humidity
9414;DHT22;4746;35.664;139.738;2023-03-01T00:01:44;15.70;59.10
9414;DHT22;4746;35.664;139.738;2023-03-01T00:04:12;15.70;59.10
9414;DHT22;4746;35.664;139.738;2023-03-01T00:06:39;15.70;59.10
9414;DHT22;4746;35.664;139.738;2023-03-01T00:09:09;15.70;59.20
9414;DHT22;4746;35.664;139.738;2023-03-01T00:11:36;15.50;60.80
9414;DHT22;4746;35.664;139.738;2023-03-01T00:14:04;15.60;61.30
9414;DHT22;4746;35.664;139.738;2023-03-01T00:16:38;15.60;60.60
9414;DHT22;4746;35.664;139.738;2023-03-01T00:19:12;15.70;61.40
9414;DHT22;4746;35.664;139.738;2023-03-01T00:21:42;15.80;61.30
9414;DHT22;4746;35.664;139.738;2023-03-01T00:24:10;15.80;62.50
9414;DHT22;4746;35.664;139.738;2023-03-01T00:26:38;15.80;62.30
9414;DHT22;4746;35.664;139.738;2023-03-01T00:29:05;15.70;61.60
9414;DHT22;4746;35.664;139.738;2023-03-01T00:31:33;15.50;61.70
9414;DHT22;4746;35.664;139.738;2023-03-01T00:34:03;15.70;61.80
9414;DHT22;4746;35.664;139.738;2023-03-01T00:36:34;15.80;62.30
9414;DHT22;4746;35.664;139.738;2023-03-01T00:39:07;15.90;62.10
9414;DHT22;4746;35.664;139.738;2023-03-01T00:41:38;15.90;61.20
9414;DHT22;4746;35.664;139.738;2023-03-01T00:44:06;16.00;61.30
9414;DHT22;4746;35.664;139.738;2023-03-01T00:46:34;16.10;60.40
9414;DHT22;4746;35.664;139.738;2023-03-01T00:49:01;16.20;60.30
9414;DHT22;4746;35.664;139.738;2023-03-01T00:51:30;16.30;60.30
9414;DHT22;4746;35.664;139.738;2023-03-01T00:54:00;16.30;63.30
9414;DHT22;4746;35.664;139.738;2023-03-01T00:56:29;16.40;63.40
9414;DHT22;4746;35.664;139.738;2023-03-01T00:58:57;16.50;63.10
9414;DHT22;4746;35.664;139.738;2023-03-01T01:01:27;16.30;63.80
9414;DHT22;4746;35.664;139.738;2023-03-01T01:04:02;16.00;64.90
9414;DHT22;4746;35.664;139.738;2023-03-01T01:06:39;15.90;65.90
9414;DHT22;4746;35.664;139.738;2023-03-01T01:09:10;15.90;66.10
9414;DHT22;4746;35.664;139.738;2023-03-01T01:11:44;15.70;66.40
9414;DHT22;4746;35.664;139.738;2023-03-01T01:14:18;15.70;66.90
9414;DHT22;4746;35.664;139.738;2023-03-01T01:16:46;15.90;67.00
9414;DHT22;4746;35.664;139.738;2023-03-01T01:19:13;15.80;66.90
9414;DHT22;4746;35.664;139.738;2023-03-01T01:21:41;15.90;67.20
9414;DHT22;4746;35.664;139.738;2023-03-01T01:24:10;16.10;67.00
9414;DHT22;4746;35.664;139.738;2023-03-01T01:26:38;16.30;66.50
9414;DHT22;4746;35.664;139.738;2023-03-01T01:29:06;16.40;66.00
9414;DHT22;4746;35.664;139.738;2023-03-01T01:31:35;16.50;65.60
9414;DHT22;4746;35.664;139.738;2023-03-01T01:34:06;16.60;65.70
9414;DHT22;4746;35.664;139.738;2023-03-01T01:36:39;16.70;64.00
9414;DHT22;4746;35.664;139.738;2023-03-01T01:39:06;16.80;60.70
9414;DHT22;4746;35.664;139.738;2023-03-01T01:41:34;16.70;57.40
9414;DHT22;4746;35.664;139.738;2023-03-01T01:44:15;16.50;57.40
9414;DHT22;4746;35.664;139.738;2023-03-01T01:46:53;16.30;56.30
9414;DHT22;4746;35.664;139.738;2023-03-01T01:49:57;16.10;54.70
9414;DHT22;4746;35.664;139.738;2023-03-01T01:52:33;16.30;55.30
9414;DHT22;4746;35.664;139.738;2023-03-01T01:55:14;16.30;55.40
9414;DHT22;4746;35.664;139.738;2023-03-01T01:57:51;16.40;54.80
9414;DHT22;4746;35.664;139.738;2023-03-01T02:00:25;16.60;53.70
9414;DHT22;4746;35.664;139.738;2023-03-01T02:03:01;16.80;51.50
9414;DHT22;4746;35.664;139.738;2023-03-01T02:05:51;16.70;50.30
9414;DHT22;4746;35.664;139.738;2023-03-01T02:08:22;16.60;47.90
9414;DHT22;4746;35.664;139.738;2023-03-01T02:10:54;16.70;48.00
9414;DHT22;4746;35.664;139.738;2023-03-01T02:13:23;16.90;47.50
9414;DHT22;4746;35.664;139.738;2023-03-01T02:15:51;17.00;46.90
9414;DHT22;4746;35.664;139.738;2023-03-01T02:18:21;17.10;46.40
9414;DHT22;4746;35.664;139.738;2023-03-01T02:21:00;17.20;45.60
9414;DHT22;4746;35.664;139.738;2023-03-01T02:23:33;17.20;40.20
9414;DHT22;4746;35.664;139.738;2023-03-01T02:29:15;17.80;39.80
9414;DHT22;4746;35.664;139.738;2023-03-01T02:31:43;17.90;39.40
9414;DHT22;4746;35.664;139.738;2023-03-01T02:34:22;17.90;37.50
9414;DHT22;4746;35.664;139.738;2023-03-01T02:37:03;17.70;35.00
9414;DHT22;4746;35.664;139.738;2023-03-01T02:39:40;17.80;35.30
9414;DHT22;4746;35.664;139.738;2023-03-01T02:42:14;18.00;35.00
9414;DHT22;4746;35.664;139.738;2023-03-01T02:44:49;18.00;33.90
9414;DHT22;4746;35.664;139.738;2023-03-01T02:47:17;18.00;33.30
9414;DHT22;4746;35.664;139.738;2023-03-01T02:49:46;17.60;32.40
9414;DHT22;4746;35.664;139.738;2023-03-01T02:52:47;17.70;33.00
9414;DHT22;4746;35.664;139.738;2023-03-01T02:55:37;17.80;31.60
9414;DHT22;4746;35.664;139.738;2023-03-01T02:58:05;17.80;32.10
9414;DHT22;4746;35.664;139.738;2023-03-01T03:00:39;17.80;32.00
9414;DHT22;4746;35.664;139.738;2023-03-01T03:03:17;17.80;31.90
9414;DHT22;4746;35.664;139.738;2023-03-01T03:05:48;17.60;31.20
9414;DHT22;4746;35.664;139.738;2023-03-01T03:08:15;17.50;32.00
9414;DHT22;4746;35.664;139.738;2023-03-01T03:10:49;17.60;32.10
9414;DHT22;4746;35.664;139.738;2023-03-01T03:13:17;17.50;32.50
9414;DHT22;4746;35.664;139.738;2023-03-01T03:15:45;17.70;32.80
9414;DHT22;4746;35.664;139.738;2023-03-01T03:18:16;18.00;33.00
9414;DHT22;4746;35.664;139.738;2023-03-01T03:20:45;18.30;32.80
9414;DHT22;4746;35.664;139.738;2023-03-01T03:23:13;18.50;32.80
9414;DHT22;4746;35.664;139.738;2023-03-01T03:25:41;18.60;32.20
9414;DHT22;4746;35.664;139.738;2023-03-01T03:28:08;18.60;32.30
9414;DHT22;4746;35.664;139.738;2023-03-01T03:30:38;18.80;32.40
9414;DHT22;4746;35.664;139.738;2023-03-01T03:33:07;19.00;32.50
9414;DHT22;4746;35.664;139.738;2023-03-01T03:35:42;19.20;31.70
9414;DHT22;4746;35.664;139.738;2023-03-01T03:38:13;19.40;32.00
9414;DHT22;4746;35.664;139.738;2023-03-01T03:40:44;19.60;31.40
9414;DHT22;4746;35.664;139.738;2023-03-01T03:43:36;19.80;31.60
9414;DHT22;4746;35.664;139.738;2023-03-01T03:46:06;19.90;32.60
9414;DHT22;4746;35.664;139.738;2023-03-01T03:48:42;19.90;33.60
9414;DHT22;4746;35.664;139.738;2023-03-01T03:51:13;20.00;33.60
9414;DHT22;4746;35.664;139.738;2023-03-01T03:53:43;20.10;34.20
9414;DHT22;4746;35.664;139.738;2023-03-01T03:56:12;20.40;34.50
9414;DHT22;4746;35.664;139.738;2023-03-01T03:58:39;20.70;34.50
9414;DHT22;4746;35.664;139.738;2023-03-01T04:01:07;21.00;34.60
9414;DHT22;4746;35.664;139.738;2023-03-01T04:03:35;21.40;35.30
9414;DHT22;4746;35.664;139.738;2023-03-01T04:06:03;21.40;34.40
9414;DHT22;4746;35.664;139.738;2023-03-01T04:08:32;21.30;34.60
9414;DHT22;4746;35.664;139.738;2023-03-01T04:11:02;21.30;35.00
9414;DHT22;4746;35.664;139.738;2023-03-01T04:13:53;21.80;34.70
9414;DHT22;4746;35.664;139.738;2023-03-01T04:16:24;22.00;33.80
9414;DHT22;4746;35.664;139.738;2023-03-01T04:18:52;21.90;32.00
9414;DHT22;4746;35.664;139.738;2023-03-01T04:21:20;21.90;31.70
9414;DHT22;4746;35.664;139.738;2023-03-01T04:23:48;21.80;31.00
9414;DHT22;4746;35.664;139.738;2023-03-01T04:26:19;21.70;31.40
9414;DHT22;4746;35.664;139.738;2023-03-01T04:28:47;21.50;31.50
9414;DHT22;4746;35.664;139.738;2023-03-01T04:31:20;21.40;31.60
9414;DHT22;4746;35.664;139.738;2023-03-01T04:33:53;21.30;31.90
9414;DHT22;4746;35.664;139.738;2023-03-01T04:36:25;21.50;32.00
9414;DHT22;4746;35.664;139.738;2023-03-01T04:38:56;21.70;31.70
9414;DHT22;4746;35.664;139.738;2023-03-01T04:41:25;22.10;31.70
9414;DHT22;4746;35.664;139.738;2023-03-01T04:43:53;22.00;30.10
9414;DHT22;4746;35.664;139.738;2023-03-01T04:46:21;21.90;29.30
9414;DHT22;4746;35.664;139.738;2023-03-01T04:48:48;21.80;29.30
9414;DHT22;4746;35.664;139.738;2023-03-01T04:51:16;21.90;29.50
9414;DHT22;4746;35.664;139.738;2023-03-01T04:53:44;22.00;30.20
9414;DHT22;4746;35.664;139.738;2023-03-01T04:56:13;21.90;30.80
9414;DHT22;4746;35.664;139.738;2023-03-01T04:58:41;22.00;31.00
9414;DHT22;4746;35.664;139.738;2023-03-01T05:01:14;22.10;30.60
9414;DHT22;4746;35.664;139.738;2023-03-01T05:03:45;22.10;30.70
9414;DHT22;4746;35.664;139.738;2023-03-01T05:06:15;22.40;30.70
9414;DHT22;4746;35.664;139.738;2023-03-01T05:08:46;22.80;30.50
9414;DHT22;4746;35.664;139.738;2023-03-01T05:11:13;23.40;30.50
9414;DHT22;4746;35.664;139.738;2023-03-01T05:13:42;24.10;30.10
9414;DHT22;4746;35.664;139.738;2023-03-01T05:16:10;24.40;29.90
9414;DHT22;4746;35.664;139.738;2023-03-01T05:18:38;24.80;29.90
9414;DHT22;4746;35.664;139.738;2023-03-01T05:21:12;25.40;29.80
9414;DHT22;4746;35.664;139.738;2023-03-01T05:23:43;25.80;28.90
9414;DHT22;4746;35.664;139.738;2023-03-01T05:26:11;26.40;29.00
9414;DHT22;4746;35.664;139.738;2023-03-01T05:28:39;27.00;28.70
9414;DHT22;4746;35.664;139.738;2023-03-01T05:31:07;27.30;28.30
9414;DHT22;4746;35.664;139.738;2023-03-01T05:33:40;27.40;27.80
9414;DHT22;4746;35.664;139.738;2023-03-01T05:36:08;27.40;27.30
9414;DHT22;4746;35.664;139.738;2023-03-01T05:38:37;27.70;27.20
9414;DHT22;4746;35.664;139.738;2023-03-01T05:41:05;27.80;27.20
9414;DHT22;4746;35.664;139.738;2023-03-01T05:43:40;28.00;26.50
9414;DHT22;4746;35.664;139.738;2023-03-01T05:46:09;28.40;26.50
9414;DHT22;4746;35.664;139.738;2023-03-01T05:48:39;28.50;26.10
9414;DHT22;4746;35.664;139.738;2023-03-01T05:51:07;28.90;26.00
9414;DHT22;4746;35.664;139.738;2023-03-01T05:53:34;28.50;24.80
9414;DHT22;4746;35.664;139.738;2023-03-01T05:56:04;27.70;24.70
9414;DHT22;4746;35.664;139.738;2023-03-01T05:58:32;27.10;25.40
9414;DHT22;4746;35.664;139.738;2023-03-01T06:01:04;27.00;25.90
9414;DHT22;4746;35.664;139.738;2023-03-01T06:03:31;27.20;25.90
9414;DHT22;4746;35.664;139.738;2023-03-01T06:05:59;26.70;25.80
9414;DHT22;4746;35.664;139.738;2023-03-01T06:08:27;26.20;26.40
9414;DHT22;4746;35.664;139.738;2023-03-01T06:10:54;25.70;26.50
9414;DHT22;4746;35.664;139.738;2023-03-01T06:13:22;25.40;27.30
9414;DHT22;4746;35.664;139.738;2023-03-01T06:15:51;25.20;27.10
9414;DHT22;4746;35.664;139.738;2023-03-01T06:18:18;25.10;27.30
9414;DHT22;4746;35.664;139.738;2023-03-01T06:20:53;24.80;27.40
9414;DHT22;4746;35.664;139.738;2023-03-01T06:23:23;24.20;27.80
9414;DHT22;4746;35.664;139.738;2023-03-01T06:25:52;23.90;27.70
9414;DHT22;4746;35.664;139.738;2023-03-01T06:28:20;23.50;28.20
9414;DHT22;4746;35.664;139.738;2023-03-01T06:30:49;23.30;28.00
9414;DHT22;4746;35.664;139.738;2023-03-01T06:33:18;23.00;27.60
9414;DHT22;4746;35.664;139.738;2023-03-01T06:35:47;22.60;28.00
9414;DHT22;4746;35.664;139.738;2023-03-01T06:38:14;22.30;28.40
9414;DHT22;4746;35.664;139.738;2023-03-01T06:40:50;22.30;28.40
9414;DHT22;4746;35.664;139.738;2023-03-01T06:43:20;21.40;28.60
9414;DHT22;4746;35.664;139.738;2023-03-01T06:45:49;21.30;29.20
9414;DHT22;4746;35.664;139.738;2023-03-01T06:48:17;20.90;29.90
9414;DHT22;4746;35.664;139.738;2023-03-01T06:50:44;20.60;30.30
9414;DHT22;4746;35.664;139.738;2023-03-01T06:53:12;20.10;30.90
9414;DHT22;4746;35.664;139.738;2023-03-01T06:55:40;20.00;31.20
9414;DHT22;4746;35.664;139.738;2023-03-01T06:58:08;20.00;31.20
9414;DHT22;4746;35.664;139.738;2023-03-01T07:00:36;19.90;31.20
9414;DHT22;4746;35.664;139.738;2023-03-01T07:03:07;19.70;31.50
9414;DHT22;4746;35.664;139.738;2023-03-01T07:05:35;19.70;31.50
9414;DHT22;4746;35.664;139.738;2023-03-01T07:08:02;19.50;32.50
9414;DHT22;4746;35.664;139.738;2023-03-01T07:10:30;19.30;32.80
9414;DHT22;4746;35.664;139.738;2023-03-01T07:12:58;19.20;33.30
9414;DHT22;4746;35.664;139.738;2023-03-01T07:15:27;19.20;33.50
9414;DHT22;4746;35.664;139.738;2023-03-01T07:17:56;19.20;33.80
9414;DHT22;4746;35.664;139.738;2023-03-01T07:20:24;19.20;34.20
9414;DHT22;4746;35.664;139.738;2023-03-01T07:22:53;19.10;34.60
9414;DHT22;4746;35.664;139.738;2023-03-01T07:25:24;19.00;34.50
9414;DHT22;4746;35.664;139.738;2023-03-01T07:27:53;18.90;35.00
9414;DHT22;4746;35.664;139.738;2023-03-01T07:30:21;18.80;35.10
9414;DHT22;4746;35.664;139.738;2023-03-01T07:32:52;18.80;35.60
9414;DHT22;4746;35.664;139.738;2023-03-01T07:35:20;18.70;35.60
9414;DHT22;4746;35.664;139.738;2023-03-01T07:37:49;18.50;36.60
9414;DHT22;4746;35.664;139.738;2023-03-01T07:40:17;18.50;36.80
9414;DHT22;4746;35.664;139.738;2023-03-01T07:42:45;18.40;37.60
9414;DHT22;4746;35.664;139.738;2023-03-01T07:45:12;18.40;37.20
9414;DHT22;4746;35.664;139.738;2023-03-01T07:47:40;18.40;37.60
9414;DHT22;4746;35.664;139.738;2023-03-01T07:50:08;18.30;37.40
9414;DHT22;4746;35.664;139.738;2023-03-01T07:52:36;18.30;37.70
9414;DHT22;4746;35.664;139.738;2023-03-01T07:55:04;18.20;38.10
9414;DHT22;4746;35.664;139.738;2023-03-01T07:57:32;18.20;38.00
9414;DHT22;4746;35.664;139.738;2023-03-01T07:59:59;18.00;38.20
9414;DHT22;4746;35.664;139.738;2023-03-01T08:02:27;18.00;38.50
9414;DHT22;4746;35.664;139.738;2023-03-01T08:04:54;18.00;37.80
9414;DHT22;4746;35.664;139.738;2023-03-01T08:07:22;18.00;37.90
9414;DHT22;4746;35.664;139.738;2023-03-01T08:09:50;17.90;37.70
9414;DHT22;4746;35.664;139.738;2023-03-01T08:12:17;17.80;37.80
9414;DHT22;4746;35.664;139.738;2023-03-01T08:14:45;17.80;37.90
9414;DHT22;4746;35.664;139.738;2023-03-01T08:17:16;17.70;38.00
9414;DHT22;4746;35.664;139.738;2023-03-01T08:19:44;17.70;38.30
9414;DHT22;4746;35.664;139.738;2023-03-01T08:22:11;17.70;38.80
9414;DHT22;4746;35.664;139.738;2023-03-01T08:24:39;17.60;38.90
9414;DHT22;4746;35.664;139.738;2023-03-01T08:27:06;17.60;39.10
9414;DHT22;4746;35.664;139.738;2023-03-01T08:29:34;17.60;40.80
9414;DHT22;4746;35.664;139.738;2023-03-01T08:32:03;17.60;41.30
9414;DHT22;4746;35.664;139.738;2023-03-01T08:34:30;17.50;42.90
9414;DHT22;4746;35.664;139.738;2023-03-01T08:36:58;17.50;44.10
9414;DHT22;4746;35.664;139.738;2023-03-01T08:39:26;17.50;47.00
9414;DHT22;4746;35.664;139.738;2023-03-01T08:41:54;17.40;48.80
9414;DHT22;4746;35.664;139.738;2023-03-01T08:44:21;17.40;54.50
9414;DHT22;4746;35.664;139.738;2023-03-01T08:46:49;17.20;58.40
9414;DHT22;4746;35.664;139.738;2023-03-01T08:49:20;17.20;63.70
9414;DHT22;4746;35.664;139.738;2023-03-01T08:51:48;17.20;64.10
9414;DHT22;4746;35.664;139.738;2023-03-01T08:54:19;17.10;69.20
9414;DHT22;4746;35.664;139.738;2023-03-01T08:56:48;17.00;78.00
9414;DHT22;4746;35.664;139.738;2023-03-01T08:59:17;17.00;79.00
9414;DHT22;4746;35.664;139.738;2023-03-01T09:01:46;17.00;82.10
9414;DHT22;4746;35.664;139.738;2023-03-01T09:04:24;17.00;86.80
9414;DHT22;4746;35.664;139.738;2023-03-01T09:06:53;16.90;92.60
9414;DHT22;4746;35.664;139.738;2023-03-01T09:09:43;16.80;93.80
9414;DHT22;4746;35.664;139.738;2023-03-01T09:12:11;16.80;95.10
9414;DHT22;4746;35.664;139.738;2023-03-01T09:14:50;16.70;95.10
9414;DHT22;4746;35.664;139.738;2023-03-01T09:17:21;16.70;96.80
9414;DHT22;4746;35.664;139.738;2023-03-01T09:19:49;16.60;97.80
9414;DHT22;4746;35.664;139.738;2023-03-01T09:22:17;16.50;98.80
9414;DHT22;4746;35.664;139.738;2023-03-01T09:24:49;16.60;96.90
9414;DHT22;4746;35.664;139.738;2023-03-01T09:27:18;16.50;95.20
9414;DHT22;4746;35.664;139.738;2023-03-01T09:29:47;16.50;94.60
9414;DHT22;4746;35.664;139.738;2023-03-01T09:32:16;16.50;93.80
9414;DHT22;4746;35.664;139.738;2023-03-01T09:34:45;16.40;93.10
9414;DHT22;4746;35.664;139.738;2023-03-01T09:37:32;16.40;92.20
9414;DHT22;4746;35.664;139.738;2023-03-01T09:40:02;16.40;92.10
9414;DHT22;4746;35.664;139.738;2023-03-01T09:42:34;16.30;91.90
9414;DHT22;4746;35.664;139.738;2023-03-01T09:45:10;16.30;90.80
9414;DHT22;4746;35.664;139.738;2023-03-01T09:47:53;16.30;90.90
9414;DHT22;4746;35.664;139.738;2023-03-01T09:50:22;16.30;90.20
9414;DHT22;4746;35.664;139.738;2023-03-01T09:53:12;16.30;89.50
9414;DHT22;4746;35.664;139.738;2023-03-01T09:55:56;16.30;88.70
9414;DHT22;4746;35.664;139.738;2023-03-01T09:58:37;16.30;86.90
9414;DHT22;4746;35.664;139.738;2023-03-01T10:01:29;16.20;85.00
9414;DHT22;4746;35.664;139.738;2023-03-01T10:04:28;16.20;85.00
9414;DHT22;4746;35.664;139.738;2023-03-01T10:10:28;16.20;84.60
9414;DHT22;4746;35.664;139.738;2023-03-01T10:13:38;16.20;83.80
9414;DHT22;4746;35.664;139.738;2023-03-01T10:16:16;16.10;84.90
9414;DHT22;4746;35.664;139.738;2023-03-01T10:19:04;16.10;85.80
9414;DHT22;4746;35.664;139.738;2023-03-01T10:21:41;16.00;87.10
9414;DHT22;4746;35.664;139.738;2023-03-01T10:24:17;16.10;87.70
9414;DHT22;4746;35.664;139.738;2023-03-01T10:26:58;16.10;88.40
9414;DHT22;4746;35.664;139.738;2023-03-01T10:32:52;16.20;90.10
9414;DHT22;4746;35.664;139.738;2023-03-01T10:35:25;16.20;88.40
9414;DHT22;4746;35.664;139.738;2023-03-01T10:38:14;16.20;88.40
9414;DHT22;4746;35.664;139.738;2023-03-01T10:41:06;16.20;89.70
9414;DHT22;4746;35.664;139.738;2023-03-01T10:43:57;16.20;90.10
9414;DHT22;4746;35.664;139.738;2023-03-01T10:46:32;16.10;90.70
9414;DHT22;4746;35.664;139.738;2023-03-01T10:49:22;16.00;91.30
9414;DHT22;4746;35.664;139.738;2023-03-01T10:51:53;16.10;91.50
9414;DHT22;4746;35.664;139.738;2023-03-01T10:54:30;16.00;91.30
9414;DHT22;4746;35.664;139.738;2023-03-01T10:57:01;16.00;91.30
9414;DHT22;4746;35.664;139.738;2023-03-01T11:02:30;15.90;92.50
9414;DHT22;4746;35.664;139.738;2023-03-01T11:07:52;15.90;93.70
9414;DHT22;4746;35.664;139.738;2023-03-01T11:10:29;15.90;93.70
9414;DHT22;4746;35.664;139.738;2023-03-01T11:13:17;15.90;94.00
9414;DHT22;4746;35.664;139.738;2023-03-01T11:16:11;15.80;95.40
9414;DHT22;4746;35.664;139.738;2023-03-01T11:18:40;15.80;95.80
9414;DHT22;4746;35.664;139.738;2023-03-01T11:21:08;15.70;96.50
9414;DHT22;4746;35.664;139.738;2023-03-01T11:23:39;15.60;98.00
9414;DHT22;4746;35.664;139.738;2023-03-01T11:26:09;15.60;98.60
9414;DHT22;4746;35.664;139.738;2023-03-01T11:28:40;15.60;98.80
9414;DHT22;4746;35.664;139.738;2023-03-01T11:31:13;15.70;99.10
9414;DHT22;4746;35.664;139.738;2023-03-01T11:43:42;15.50;99.90
9414;DHT22;4746;35.664;139.738;2023-03-01T11:49:41;15.40;99.90
9414;DHT22;4746;35.664;139.738;2023-03-01T11:55:21;15.40;99.90
9414;DHT22;4746;35.664;139.738;2023-03-01T11:58:31;15.40;99.90
9414;DHT22;4746;35.664;139.738;2023-03-01T12:11:13;15.30;99.90
9414;DHT22;4746;35.664;139.738;2023-03-01T12:16:59;15.30;99.90
9414;DHT22;4746;35.664;139.738;2023-03-01T12:20:01;15.30;99.90
9414;DHT22;4746;35.664;139.738;2023-03-01T12:26:04;15.40;99.90
9414;DHT22;4746;35.664;139.738;2023-03-01T12:29:16;15.30;99.90
9414;DHT22;4746;35.664;139.738;2023-03-01T12:38:56;15.30;99.90
9414;DHT22;4746;35.664;139.738;2023-03-01T12:48:46;15.20;99.90
9414;DHT22;4746;35.664;139.738;2023-03-01T12:51:11;15.30;99.90
9414;DHT22;4746;35.664;139.738;2023-03-01T12:53:52;15.30;99.90
9414;DHT22;4746;35.664;139.738;2023-03-01T12:56:34;15.30;99.90
9414;DHT22;4746;35.664;139.738;2023-03-01T12:59:26;15.20;99.90
9414;DHT22;4746;35.664;139.738;2023-03-01T13:02:27;15.20;99.90
9414;DHT22;4746;35.664;139.738;2023-03-01T13:08:08;15.20;99.90
9414;DHT22;4746;35.664;139.738;2023-03-01T13:10:55;15.20;99.90
9414;DHT22;4746;35.664;139.738;2023-03-01T13:13:27;15.20;99.90
9414;DHT22;4746;35.664;139.738;2023-03-01T13:16:40;15.20;99.90
9414;DHT22;4746;35.664;139.738;2023-03-01T13:19:19;15.20;99.90
9414;DHT22;4746;35.664;139.738;2023-03-01T13:21:53;15.10;99.90
9414;DHT22;4746;35.664;139.738;2023-03-01T13:27:23;15.10;99.90
9414;DHT22;4746;35.664;139.738;2023-03-01T13:29:57;15.10;99.90
9414;DHT22;4746;35.664;139.738;2023-03-01T13:32:36;15.10;99.90
9414;DHT22;4746;35.664;139.738;2023-03-01T13:37:47;15.20;99.90
9414;DHT22;4746;35.664;139.738;2023-03-01T13:42:55;15.30;99.90
9414;DHT22;4746;35.664;139.738;2023-03-01T13:45:41;15.10;99.90
9414;DHT22;4746;35.664;139.738;2023-03-01T13:50:52;15.10;99.90
9414;DHT22;4746;35.664;139.738;2023-03-01T13:53:33;15.10;99.90
9414;DHT22;4746;35.664;139.738;2023-03-01T13:56:15;15.10;99.90
9414;DHT22;4746;35.664;139.738;2023-03-01T13:58:50;15.00;99.90
9414;DHT22;4746;35.664;139.738;2023-03-01T14:01:30;15.00;99.90
9414;DHT22;4746;35.664;139.738;2023-03-01T14:04:01;15.00;99.90
9414;DHT22;4746;35.664;139.738;2023-03-01T14:06:37;15.00;99.90
9414;DHT22;4746;35.664;139.738;2023-03-01T14:09:20;15.00;99.90
9414;DHT22;4746;35.664;139.738;2023-03-01T14:12:21;15.00;99.90
9414;DHT22;4746;35.664;139.738;2023-03-01T14:15:32;15.00;99.90
9414;DHT22;4746;35.664;139.738;2023-03-01T14:18:23;14.90;99.90
9414;DHT22;4746;35.664;139.738;2023-03-01T14:21:16;14.90;99.90
9414;DHT22;4746;35.664;139.738;2023-03-01T14:23:51;15.00;99.90
9414;DHT22;4746;35.664;139.738;2023-03-01T14:26:32;14.90;99.90
9414;DHT22;4746;35.664;139.738;2023-03-01T14:29:13;15.00;99.90
9414;DHT22;4746;35.664;139.738;2023-03-01T14:32:19;14.90;99.90
9414;DHT22;4746;35.664;139.738;2023-03-01T14:34:52;14.90;99.90
9414;DHT22;4746;35.664;139.738;2023-03-01T14:37:40;14.90;99.90
9414;DHT22;4746;35.664;139.738;2023-03-01T14:40:32;14.90;99.90
9414;DHT22;4746;35.664;139.738;2023-03-01T14:43:08;14.90;99.90
9414;DHT22;4746;35.664;139.738;2023-03-01T14:45:46;14.90;99.90
9414;DHT22;4746;35.664;139.738;2023-03-01T14:48:16;14.90;99.90
9414;DHT22;4746;35.664;139.738;2023-03-01T14:50:45;14.90;99.90
9414;DHT22;4746;35.664;139.738;2023-03-01T14:53:23;14.80;99.90
9414;DHT22;4746;35.664;139.738;2023-03-01T14:55:56;14.90;99.90
9414;DHT22;4746;35.664;139.738;2023-03-01T14:58:34;14.90;99.90
9414;DHT22;4746;35.664;139.738;2023-03-01T15:01:06;14.80;99.90
9414;DHT22;4746;35.664;139.738;2023-03-01T15:03:40;14.70;99.90
9414;DHT22;4746;35.664;139.738;2023-03-01T15:06:11;14.70;99.90
9414;DHT22;4746;35.664;139.738;2023-03-01T15:08:53;14.60;99.90
9414;DHT22;4746;35.664;139.738;2023-03-01T15:11:32;14.60;99.90
9414;DHT22;4746;35.664;139.738;2023-03-01T15:14:41;14.50;99.90
9414;DHT22;4746;35.664;139.738;2023-03-01T15:17:39;14.50;99.90
9414;DHT22;4746;35.664;139.738;2023-03-01T15:20:16;14.40;99.90
9414;DHT22;4746;35.664;139.738;2023-03-01T15:22:49;14.40;99.90
9414;DHT22;4746;35.664;139.738;2023-03-01T15:25:24;14.30;99.90
9414;DHT22;4746;35.664;139.738;2023-03-01T15:27:56;14.30;99.90
9414;DHT22;4746;35.664;139.738;2023-03-01T15:30:31;14.20;99.90
9414;DHT22;4746;35.664;139.738;2023-03-01T15:33:33;14.20;99.90
9414;DHT22;4746;35.664;139.738;2023-03-01T15:39:38;14.20;99.90
9414;DHT22;4746;35.664;139.738;2023-03-01T15:47:52;14.20;99.90
9414;DHT22;4746;35.664;139.738;2023-03-01T15:50:33;14.10;99.90
9414;DHT22;4746;35.664;139.738;2023-03-01T15:53:14;14.00;99.90
9414;DHT22;4746;35.664;139.738;2023-03-01T15:55:42;14.00;99.90
9414;DHT22;4746;35.664;139.738;2023-03-01T15:58:23;14.00;99.90
9414;DHT22;4746;35.664;139.738;2023-03-01T16:00:52;14.00;99.90
9414;DHT22;4746;35.664;139.738;2023-03-01T16:03:23;14.10;99.90
9414;DHT22;4746;35.664;139.738;2023-03-01T16:05:51;14.10;99.90
9414;DHT22;4746;35.664;139.738;2023-03-01T16:08:19;14.10;99.90
9414;DHT22;4746;35.664;139.738;2023-03-01T16:10:48;14.10;99.90
9414;DHT22;4746;35.664;139.738;2023-03-01T16:13:20;14.10;99.90
9414;DHT22;4746;35.664;139.738;2023-03-01T16:15:48;14.10;99.90
9414;DHT22;4746;35.664;139.738;2023-03-01T16:18:16;14.10;99.90
9414;DHT22;4746;35.664;139.738;2023-03-01T16:20:43;14.10;99.90
9414;DHT22;4746;35.664;139.738;2023-03-01T16:23:15;14.10;99.90
9414;DHT22;4746;35.664;139.738;2023-03-01T16:25:42;14.20;99.90
9414;DHT22;4746;35.664;139.738;2023-03-01T16:28:13;14.20;99.90
9414;DHT22;4746;35.664;139.738;2023-03-01T16:31:00;14.20;99.90
9414;DHT22;4746;35.664;139.738;2023-03-01T16:33:33;14.20;99.90
9414;DHT22;4746;35.664;139.738;2023-03-01T16:36:12;14.20;99.90
9414;DHT22;4746;35.664;139.738;2023-03-01T16:38:44;14.30;99.90
9414;DHT22;4746;35.664;139.738;2023-03-01T16:41:22;14.30;99.90
9414;DHT22;4746;35.664;139.738;2023-03-01T16:43:52;14.40;99.90
9414;DHT22;4746;35.664;139.738;2023-03-01T16:46:25;14.40;99.90
9414;DHT22;4746;35.664;139.738;2023-03-01T16:49:08;14.40;99.90
9414;DHT22;4746;35.664;139.738;2023-03-01T16:51:41;14.50;99.90
9414;DHT22;4746;35.664;139.738;2023-03-01T16:54:12;14.60;99.90
9414;DHT22;4746;35.664;139.738;2023-03-01T16:56:39;14.60;99.90
9414;DHT22;4746;35.664;139.738;2023-03-01T16:59:07;14.60;99.90
9414;DHT22;4746;35.664;139.738;2023-03-01T17:01:37;14.60;99.90
9414;DHT22;4746;35.664;139.738;2023-03-01T17:04:11;14.60;99.90
9414;DHT22;4746;35.664;139.738;2023-03-01T17:06:39;14.60;99.90
9414;DHT22;4746;35.664;139.738;2023-03-01T17:09:07;14.60;99.90
9414;DHT22;4746;35.664;139.738;2023-03-01T17:11:35;14.60;99.90
9414;DHT22;4746;35.664;139.738;2023-03-01T17:14:03;14.60;99.90
9414;DHT22;4746;35.664;139.738;2023-03-01T17:16:32;14.60;99.90
9414;DHT22;4746;35.664;139.738;2023-03-01T17:19:01;14.60;99.90
9414;DHT22;4746;35.664;139.738;2023-03-01T17:21:31;14.60;99.90
9414;DHT22;4746;35.664;139.738;2023-03-01T17:23:59;14.60;99.90
9414;DHT22;4746;35.664;139.738;2023-03-01T17:26:27;14.60;99.90
9414;DHT22;4746;35.664;139.738;2023-03-01T17:28:56;14.60;99.90
9414;DHT22;4746;35.664;139.738;2023-03-01T17:31:24;14.60;99.90
9414;DHT22;4746;35.664;139.738;2023-03-01T17:33:52;14.50;99.90
9414;DHT22;4746;35.664;139.738;2023-03-01T17:36:20;14.50;99.90